Time;durP1;ratioP1;P1;durP2;ratioP2;P2;SDS_P1;SDS_P2;PMS_P1;PMS_P2;Temp;Humidity;BMP_temperature;BMP_pressure;BME280_temperature;BME280_humidity;BME280_pressure;Samples;Min_cycle;Max_cycle;Signal;HPM_P1;HPM_P2
2023/08/30 00:00:29;;;;;;;0.00;0.00;;;;;;;15.53;100.00;100736.09;5054697;28;20058;-48
2023/08/30 00:02:54;;;;;;;0.00;0.00;;;;;;;15.56;100.00;100737.53;5083313;28;20472;-49
2023/08/30 00:05:20;;;;;;;0.00;0.00;;;;;;;15.54;100.00;100731.50;5061635;28;20453;-46
2023/08/30 00:07:45;;;;;;;0.00;0.00;;;;;;;15.55;100.00;100731.28;5081607;28;20375;-47
2023/08/30 00:10:10;;;;;;;0.00;0.00;;;;;;;15.53;100.00;100717.13;5073381;28;20048;-47
2023/08/30 00:12:36;;;;;;;0.00;0.00;;;;;;;15.52;100.00;100723.56;5070942;28;20398;-50
2023/08/30 00:15:01;;;;;;;0.00;0.00;;;;;;;15.54;100.00;100718.78;5088023;28;20036;-48
2023/08/30 00:17:27;;;;;;;0.00;0.00;;;;;;;15.56;100.00;100724.81;5053538;28;20104;-48
2023/08/30 00:19:54;;;;;;;0.00;0.00;;;;;;;15.56;100.00;100719.38;5072430;28;20466;-49
2023/08/30 00:22:21;;;;;;;0.00;0.00;;;;;;;15.60;100.00;100708.94;5072056;28;20025;-49
2023/08/30 00:24:46;;;;;;;0.00;0.00;;;;;;;15.59;100.00;100713.53;5071740;28;20037;-47
2023/08/30 00:27:12;;;;;;;0.00;0.00;;;;;;;15.59;100.00;100712.69;5070428;28;20032;-46
2023/08/30 00:29:37;;;;;;;0.00;0.00;;;;;;;15.56;100.00;100716.69;5071568;28;20594;-48
2023/08/30 00:32:03;;;;;;;0.00;0.00;;;;;;;15.58;100.00;100719.16;5075014;28;20028;-46
2023/08/30 00:34:28;;;;;;;0.00;0.00;;;;;;;15.55;100.00;100706.84;5082325;28;20032;-47
2023/08/30 00:36:54;;;;;;;0.00;0.00;;;;;;;15.55;100.00;100703.31;5075070;28;20028;-49
2023/08/30 00:39:19;;;;;;;0.00;0.00;;;;;;;15.59;100.00;100701.84;5070903;28;20036;-48
2023/08/30 00:41:44;;;;;;;0.00;0.00;;;;;;;15.59;100.00;100704.56;5071285;28;20029;-47
2023/08/30 00:44:10;;;;;;;0.00;0.00;;;;;;;15.56;100.00;100708.53;5082347;28;20116;-47
2023/08/30 00:46:35;;;;;;;0.00;0.00;;;;;;;15.57;100.00;100699.34;5066552;28;20066;-50
2023/08/30 00:49:01;;;;;;;0.00;0.00;;;;;;;15.59;100.00;100697.25;5053325;28;20060;-48
2023/08/30 00:51:27;;;;;;;0.00;0.00;;;;;;;15.58;100.00;100694.75;5076917;28;20032;-47
2023/08/30 00:53:54;;;;;;;0.00;0.00;;;;;;;15.57;100.00;100695.81;5079666;28;20028;-45
2023/08/30 00:56:19;;;;;;;0.00;0.00;;;;;;;15.56;100.00;100694.97;5088665;28;20039;-46
2023/08/30 00:58:45;;;;;;;0.00;0.00;;;;;;;15.55;100.00;100689.75;5071036;28;20475;-47
2023/08/30 01:01:11;;;;;;;0.00;0.00;;;;;;;15.53;100.00;100687.28;5071274;28;20044;-48
2023/08/30 01:03:37;;;;;;;0.00;0.00;;;;;;;15.50;100.00;100682.28;5064910;28;20078;-48
2023/08/30 01:06:03;;;;;;;0.00;0.00;;;;;;;15.47;100.00;100680.00;5071491;28;20052;-47
2023/08/30 01:08:28;;;;;;;0.00;0.00;;;;;;;15.49;100.00;100682.50;5070901;28;20439;-47
2023/08/30 01:11:32;;;;;;;0.00;0.00;;;;;;;15.47;100.00;100679.16;5053630;28;20138;-47
2023/08/30 01:14:04;;;;;;;0.00;0.00;;;;;;;15.47;100.00;100676.47;5067280;28;20161;-47
2023/08/30 01:16:30;;;;;;;0.00;0.00;;;;;;;15.47;100.00;100677.28;5066802;28;20115;-48
2023/08/30 01:18:56;;;;;;;0.00;0.00;;;;;;;15.50;100.00;100674.13;5059089;28;20151;-47
2023/08/30 01:21:40;;;;;;;0.00;0.00;;;;;;;15.50;100.00;100671.41;5079269;28;20032;-48
2023/08/30 01:24:07;;;;;;;0.00;0.00;;;;;;;15.53;100.00;100676.44;5072250;28;20043;-46
2023/08/30 01:26:35;;;;;;;0.00;0.00;;;;;;;15.56;100.00;100667.84;5056681;28;20366;-48
2023/08/30 01:29:01;;;;;;;0.00;0.00;;;;;;;15.57;100.00;100672.22;5074625;28;20032;-49
2023/08/30 01:31:29;;;;;;;0.00;0.00;;;;;;;15.58;100.00;100668.44;5074316;28;20078;-47
2023/08/30 01:33:56;;;;;;;0.00;0.00;;;;;;;15.54;100.00;100658.28;5074712;28;20092;-48
2023/08/30 01:36:22;;;;;;;0.00;0.00;;;;;;;15.53;100.00;100657.44;5057172;28;20056;-47
2023/08/30 01:38:47;;;;;;;0.00;0.00;;;;;;;15.52;100.00;100658.47;5074273;28;20508;-50
2023/08/30 01:41:13;;;;;;;0.00;0.00;;;;;;;15.55;100.00;100658.03;5057476;28;20461;-49
2023/08/30 01:43:39;;;;;;;0.00;0.00;;;;;;;15.50;100.00;100657.84;5060690;28;20464;-50
2023/08/30 01:46:05;;;;;;;0.00;0.00;;;;;;;15.54;100.00;100658.28;5073045;28;20020;-45
2023/08/30 01:48:32;;;;;;;0.00;0.00;;;;;;;15.53;100.00;100652.03;5074318;28;20021;-46
2023/08/30 01:51:00;;;;;;;0.00;0.00;;;;;;;15.55;100.00;100659.91;5073818;28;20040;-46
2023/08/30 01:53:26;;;;;;;0.00;0.00;;;;;;;15.56;100.00;100654.28;5074546;28;20064;-43
2023/08/30 01:55:51;;;;;;;0.00;0.00;;;;;;;15.53;100.00;100656.59;5074324;28;20032;-44
2023/08/30 01:58:18;;;;;;;0.00;0.00;;;;;;;15.52;100.00;100655.75;5055659;28;20033;-46
2023/08/30 02:00:44;;;;;;;0.00;0.00;;;;;;;15.51;100.00;100651.41;5073628;28;20064;-48
2023/08/30 02:03:11;;;;;;;0.00;0.00;;;;;;;15.46;100.00;100647.69;5056243;28;20052;-46
2023/08/30 02:05:40;;;;;;;0.00;0.00;;;;;;;15.41;100.00;100648.34;5073879;28;20033;-48
2023/08/30 02:08:16;;;;;;;0.00;0.00;;;;;;;15.47;100.00;100650.16;5056329;28;20036;-47
2023/08/30 02:10:48;;;;;;;0.00;0.00;;;;;;;15.48;100.00;100649.13;5073170;28;20052;-45
2023/08/30 02:13:14;;;;;;;0.00;0.00;;;;;;;15.42;100.00;100639.13;5056305;28;20394;-51
2023/08/30 02:15:41;;;;;;;0.00;0.00;;;;;;;15.44;100.00;100642.47;5038752;28;20029;-47
2023/08/30 02:18:07;;;;;;;0.00;0.00;;;;;;;15.31;100.00;100640.66;5055652;28;20028;-50
2023/08/30 02:20:32;;;;;;;0.00;0.00;;;;;;;15.33;100.00;100644.00;5063433;28;20063;-44
2023/08/30 02:22:59;;;;;;;0.00;0.00;;;;;;;15.33;100.00;100632.34;5076552;28;20082;-49
2023/08/30 02:25:24;;;;;;;0.00;0.00;;;;;;;15.34;100.00;100628.56;5073171;28;20052;-47
2023/08/30 02:27:50;;;;;;;0.00;0.00;;;;;;;15.27;100.00;100627.75;5088773;28;20571;-46
2023/08/30 02:30:15;;;;;;;0.00;0.00;;;;;;;15.24;100.00;100622.78;5074022;28;20031;-46
2023/08/30 02:32:40;;;;;;;0.00;0.00;;;;;;;15.20;100.00;100624.28;5074907;28;20053;-50
2023/08/30 02:35:06;;;;;;;0.00;0.00;;;;;;;15.08;100.00;100611.41;5089231;28;20036;-48
2023/08/30 02:37:31;;;;;;;0.00;0.00;;;;;;;15.03;100.00;100616.63;5080295;28;20016;-45
2023/08/30 02:39:57;;;;;;;0.00;0.00;;;;;;;15.00;100.00;100608.13;5094178;28;20032;-46
2023/08/30 02:42:22;;;;;;;0.00;0.00;;;;;;;14.97;100.00;100609.38;5079673;28;20027;-48
2023/08/30 02:44:47;;;;;;;0.00;0.00;;;;;;;14.96;100.00;100605.03;5072388;28;20175;-48
2023/08/30 02:47:13;;;;;;;0.00;0.00;;;;;;;14.84;100.00;100609.44;5055000;28;20500;-47
2023/08/30 02:49:38;;;;;;;0.00;0.00;;;;;;;14.81;100.00;100604.47;5089095;28;20048;-46
2023/08/30 02:52:04;;;;;;;0.00;0.00;;;;;;;14.76;100.00;100598.84;5075212;28;20113;-48
2023/08/30 02:54:29;;;;;;;0.00;0.00;;;;;;;14.73;100.00;100594.69;5087668;28;20020;-47
2023/08/30 02:56:54;;;;;;;0.00;0.00;;;;;;;14.76;100.00;100590.72;5084633;28;20029;-47
2023/08/30 02:59:20;;;;;;;0.00;0.00;;;;;;;14.73;100.00;100585.75;5072742;28;20655;-50
2023/08/30 03:01:45;;;;;;;0.00;0.00;;;;;;;14.69;100.00;100586.19;5072400;28;20052;-49
2023/08/30 03:04:10;;;;;;;0.00;0.00;;;;;;;14.75;100.00;100583.66;5073464;28;20028;-46
2023/08/30 03:06:36;;;;;;;0.00;0.00;;;;;;;14.72;100.00;100582.22;5074159;28;20139;-44
2023/08/30 03:09:06;;;;;;;0.00;0.00;;;;;;;14.68;100.00;100586.38;5073738;28;20028;-46
2023/08/30 03:11:31;;;;;;;0.00;0.00;;;;;;;14.61;100.00;100591.84;5074659;28;20037;-45
2023/08/30 03:13:57;;;;;;;0.00;0.00;;;;;;;14.62;100.00;100577.25;5073673;28;20040;-46
2023/08/30 03:16:22;;;;;;;0.00;0.00;;;;;;;14.59;100.00;100571.44;5078257;28;20038;-45
2023/08/30 03:18:47;;;;;;;0.00;0.00;;;;;;;14.57;100.00;100568.13;5092976;28;20550;-46
2023/08/30 03:21:13;;;;;;;0.00;0.00;;;;;;;14.53;100.00;100556.84;5081805;28;20020;-48
2023/08/30 03:23:40;;;;;;;0.00;0.00;;;;;;;14.53;100.00;100553.31;5072523;28;20029;-48
2023/08/30 03:26:10;;;;;;;0.00;0.00;;;;;;;14.46;100.00;100566.88;5071325;28;20063;-48
2023/08/30 03:28:36;;;;;;;0.00;0.00;;;;;;;14.45;100.00;100562.50;5072119;28;20032;-48
2023/08/30 03:31:01;;;;;;;0.00;0.00;;;;;;;14.41;100.00;100553.16;5072346;28;20052;-47
2023/08/30 03:33:27;;;;;;;0.00;0.00;;;;;;;14.39;100.00;100556.06;5054388;28;20025;-47
2023/08/30 03:35:52;;;;;;;0.00;0.00;;;;;;;14.40;100.00;100552.31;5071874;28;20111;-49
2023/08/30 03:38:17;;;;;;;0.00;0.00;;;;;;;14.39;100.00;100544.41;5071977;28;20024;-47
2023/08/30 03:40:43;;;;;;;0.00;0.00;;;;;;;14.35;100.00;100559.41;5071807;28;20409;-47
2023/08/30 03:43:08;;;;;;;0.00;0.00;;;;;;;14.27;100.00;100557.78;5071934;28;20028;-49
2023/08/30 03:45:37;;;;;;;0.00;0.00;;;;;;;14.22;100.00;100553.00;5072028;28;20625;-47
2023/08/30 03:48:04;;;;;;;0.00;0.00;;;;;;;14.16;100.00;100551.13;5072038;28;20029;-46
2023/08/30 03:50:29;;;;;;;0.00;0.00;;;;;;;14.13;100.00;100543.44;5072674;28;20538;-51
2023/08/30 03:52:54;;;;;;;0.00;0.00;;;;;;;14.07;100.00;100541.59;5092069;28;20134;-50
2023/08/30 03:55:21;;;;;;;0.00;0.00;;;;;;;14.09;100.00;100541.41;5091701;28;20069;-48
2023/08/30 03:57:46;;;;;;;0.00;0.00;;;;;;;14.04;100.00;100539.31;5083474;28;20119;-48
2023/08/30 04:00:12;;;;;;;0.00;0.00;;;;;;;14.04;100.00;100542.03;5080806;28;20106;-47
2023/08/30 04:02:37;;;;;;;0.00;0.00;;;;;;;14.08;100.00;100532.41;5072176;28;20044;-48
2023/08/30 04:05:08;;;;;;;0.00;0.00;;;;;;;14.06;100.00;100529.13;5062067;28;20044;-48
2023/08/30 04:07:33;;;;;;;0.00;0.00;;;;;;;14.05;100.00;100522.84;5070593;28;20035;-47
2023/08/30 04:09:58;;;;;;;0.00;0.00;;;;;;;14.09;100.00;100522.44;5070138;28;20025;-50
2023/08/30 04:12:24;;;;;;;0.00;0.00;;;;;;;14.08;100.00;100521.59;5070824;28;20071;-46
2023/08/30 04:14:49;;;;;;;0.00;0.00;;;;;;;14.08;100.00;100526.19;5084674;28;20116;-50
2023/08/30 04:17:15;;;;;;;0.00;0.00;;;;;;;14.06;100.00;100526.41;5061284;28;20022;-45
2023/08/30 04:19:40;;;;;;;0.00;0.00;;;;;;;14.03;100.00;100524.09;5052970;28;20352;-51
2023/08/30 04:22:05;;;;;;;0.00;0.00;;;;;;;14.07;100.00;100528.06;5085008;28;20036;-46
2023/08/30 04:24:31;;;;;;;0.00;0.00;;;;;;;14.10;100.00;100518.69;5071734;28;20104;-43
2023/08/30 04:26:56;;;;;;;0.00;0.00;;;;;;;14.12;100.00;100516.59;5070165;28;20043;-49
2023/08/30 04:29:22;;;;;;;0.00;0.00;;;;;;;14.16;100.00;100517.81;5070353;28;20039;-48
2023/08/30 04:31:47;;;;;;;0.00;0.00;;;;;;;14.18;100.00;100504.91;5070035;28;20136;-47
2023/08/30 04:34:12;;;;;;;0.00;0.00;;;;;;;14.19;100.00;100502.00;5074382;28;20056;-49
2023/08/30 04:36:38;;;;;;;0.00;0.00;;;;;;;14.24;100.00;100499.50;5083065;28;20028;-49
2023/08/30 04:39:03;;;;;;;0.00;0.00;;;;;;;14.24;100.00;100494.09;5070324;28;20056;-47
2023/08/30 04:41:29;;;;;;;0.00;0.00;;;;;;;14.20;100.00;100502.84;5083391;28;20038;-48
2023/08/30 04:43:54;;;;;;;0.00;0.00;;;;;;;14.19;100.00;100491.19;5089422;28;20028;-48
2023/08/30 04:46:19;;;;;;;0.00;0.00;;;;;;;14.20;100.00;100487.41;5072658;28;20483;-45
2023/08/30 04:48:45;;;;;;;0.00;0.00;;;;;;;14.23;100.00;100481.56;5086299;28;20036;-45
2023/08/30 04:51:11;;;;;;;0.00;0.00;;;;;;;14.23;100.00;100492.41;5070171;28;20032;-47
2023/08/30 04:53:36;;;;;;;0.00;0.00;;;;;;;14.23;100.00;100487.00;5069725;28;20028;-45
2023/08/30 04:56:10;;;;;;;0.00;0.00;;;;;;;14.19;100.00;100507.44;5069952;28;20077;-47
2023/08/30 04:58:35;;;;;;;0.00;0.00;;;;;;;14.16;100.00;100515.94;5069951;28;20036;-49
2023/08/30 05:01:02;;;;;;;0.00;0.00;;;;;;;14.12;100.00;100522.84;5072660;28;20072;-49
2023/08/30 05:03:27;;;;;;;0.00;0.00;;;;;;;14.13;100.00;100529.09;5074400;28;20025;-47
2023/08/30 05:05:53;;;;;;;0.00;0.00;;;;;;;14.03;100.00;100529.53;5074196;28;20032;-48
2023/08/30 05:08:18;;;;;;;0.00;0.00;;;;;;;13.97;100.00;100539.31;5079752;28;20051;-49
2023/08/30 05:10:44;;;;;;;0.00;0.00;;;;;;;13.89;100.00;100536.84;5077539;28;20032;-43
2023/08/30 05:13:10;;;;;;;0.00;0.00;;;;;;;13.88;100.00;100539.78;5083211;28;20016;-48
2023/08/30 05:15:35;;;;;;;0.00;0.00;;;;;;;13.79;100.00;100541.84;5067785;28;20506;-49
2023/08/30 05:18:01;;;;;;;0.00;0.00;;;;;;;13.72;100.00;100544.59;5054769;28;20024;-52
2023/08/30 05:20:26;;;;;;;0.00;0.00;;;;;;;13.66;100.00;100533.75;5068525;28;20074;-47
2023/08/30 05:22:51;;;;;;;0.00;0.00;;;;;;;13.58;100.00;100532.09;5068932;28;20037;-42
2023/08/30 05:25:17;;;;;;;0.00;0.00;;;;;;;13.48;100.00;100539.78;5074813;28;20035;-43
2023/08/30 05:27:42;;;;;;;0.00;0.00;;;;;;;13.44;100.00;100552.06;5074369;28;20049;-44
2023/08/30 05:30:08;;;;;;;0.00;0.00;;;;;;;13.45;100.00;100551.03;5079133;28;20031;-44
2023/08/30 05:32:34;;;;;;;0.00;0.00;;;;;;;13.37;100.00;100557.47;5074947;28;20032;-42
2023/08/30 05:34:59;;;;;;;0.00;0.00;;;;;;;13.28;100.00;100564.97;5074987;28;20017;-43
2023/08/30 05:37:24;;;;;;;0.00;0.00;;;;;;;13.25;100.00;100559.13;5091613;28;20458;-42
2023/08/30 05:39:50;;;;;;;0.00;0.00;;;;;;;13.18;100.00;100557.22;5077000;28;20032;-40
2023/08/30 05:42:15;;;;;;;0.00;0.00;;;;;;;13.13;100.00;100551.59;5075005;28;20037;-42
2023/08/30 05:44:40;;;;;;;0.00;0.00;;;;;;;13.09;100.00;100546.84;5075581;28;20394;-42
2023/08/30 05:47:06;;;;;;;0.00;0.00;;;;;;;13.06;100.00;100549.91;5074859;28;20033;-41
2023/08/30 05:49:31;;;;;;;0.00;0.00;;;;;;;13.03;100.00;100551.16;5068736;28;20032;-42
2023/08/30 05:51:56;;;;;;;0.00;0.00;;;;;;;12.96;100.00;100545.75;5057055;28;20024;-43
2023/08/30 05:54:22;;;;;;;0.00;0.00;;;;;;;12.99;100.00;100549.09;5074018;28;20163;-47
2023/08/30 05:56:47;;;;;;;0.00;0.00;;;;;;;12.99;100.00;100541.81;5068354;28;20070;-47
2023/08/30 05:59:13;;;;;;;0.00;0.00;;;;;;;12.98;100.00;100536.59;5074180;28;20391;-45
2023/08/30 06:01:38;;;;;;;0.00;0.00;;;;;;;12.94;100.00;100537.03;5073449;28;20049;-46
2023/08/30 06:04:04;;;;;;;0.00;0.00;;;;;;;12.84;100.00;100531.19;5074223;28;20040;-46
2023/08/30 06:06:30;;;;;;;0.00;0.00;;;;;;;12.84;100.00;100531.19;5074268;28;20077;-46
2023/08/30 06:08:55;;;;;;;0.00;0.00;;;;;;;12.79;100.00;100544.47;5074505;28;20059;-44
2023/08/30 06:11:20;;;;;;;0.00;0.00;;;;;;;12.83;100.00;100532.22;5090109;28;20063;-42
2023/08/30 06:13:46;;;;;;;0.00;0.00;;;;;;;12.86;100.00;100529.13;5073823;28;20528;-47
2023/08/30 06:16:11;;;;;;;0.00;0.00;;;;;;;12.80;100.00;100526.41;5073650;28;20041;-48
2023/08/30 06:18:37;;;;;;;0.00;0.00;;;;;;;12.85;100.00;100523.91;5072940;28;20528;-48
2023/08/30 06:21:03;;;;;;;0.00;0.00;;;;;;;12.81;100.00;100528.91;5074049;28;20443;-50
2023/08/30 06:23:29;;;;;;;0.00;0.00;;;;;;;12.86;100.00;100525.59;5073510;28;20125;-51
2023/08/30 06:25:58;;;;;;;0.00;0.00;;;;;;;12.92;100.00;100522.88;5072595;28;20565;-48
2023/08/30 06:28:24;;;;;;;0.00;0.00;;;;;;;12.89;100.00;100528.69;5074931;28;20040;-48
2023/08/30 06:30:50;;;;;;;0.00;0.00;;;;;;;13.00;100.00;100529.13;5073144;28;20047;-49
2023/08/30 06:33:15;;;;;;;0.00;0.00;;;;;;;13.06;100.00;100525.59;5066801;28;20055;-47
2023/08/30 06:35:42;;;;;;;0.00;0.00;;;;;;;13.13;100.00;100526.44;5060605;28;21286;-50
2023/08/30 06:38:08;;;;;;;0.00;0.00;;;;;;;13.19;100.00;100522.91;5068807;28;20036;-51
2023/08/30 06:40:33;;;;;;;0.00;0.00;;;;;;;13.17;100.00;100525.00;5069389;28;20119;-45
2023/08/30 06:43:00;;;;;;;0.00;0.00;;;;;;;13.12;100.00;100514.00;5069606;28;20024;-46
2023/08/30 06:45:25;;;;;;;0.00;0.00;;;;;;;13.15;100.00;100516.28;5070329;28;20035;-47
2023/08/30 06:47:52;;;;;;;0.00;0.00;;;;;;;13.20;100.00;100513.78;5069869;28;20029;-46
2023/08/30 06:50:17;;;;;;;0.00;0.00;;;;;;;13.24;100.00;100509.59;5072615;28;20391;-48
2023/08/30 06:52:43;;;;;;;0.00;0.00;;;;;;;13.19;100.00;100509.41;5072324;28;20029;-48
2023/08/30 06:55:09;;;;;;;0.00;0.00;;;;;;;13.24;100.00;100492.56;5072823;28;20059;-45
2023/08/30 06:57:34;;;;;;;0.00;0.00;;;;;;;13.28;100.00;100502.78;5072364;28;20024;-46
2023/08/30 07:00:07;;;;;;;0.00;0.00;;;;;;;13.36;100.00;100502.59;5053026;28;20059;-44
2023/08/30 07:02:33;;;;;;;0.00;0.00;;;;;;;13.37;100.00;100493.44;5052781;28;20099;-46
2023/08/30 07:04:58;;;;;;;0.00;0.00;;;;;;;13.45;100.00;100496.97;5074087;28;20470;-46
2023/08/30 07:07:23;;;;;;;0.00;0.00;;;;;;;13.39;100.00;100490.53;5072750;28;20382;-45
2023/08/30 07:09:49;;;;;;;0.00;0.00;;;;;;;13.36;100.00;100483.66;5072832;28;20347;-45
2023/08/30 07:12:14;;;;;;;0.00;0.00;;;;;;;13.43;100.00;100483.66;5076417;28;20028;-46
2023/08/30 07:14:39;;;;;;;0.00;0.00;;;;;;;13.45;100.00;100478.03;5072693;28;20028;-46
2023/08/30 07:17:05;;;;;;;0.00;0.00;;;;;;;13.46;100.00;100479.72;5075235;28;20186;-46
2023/08/30 07:19:30;;;;;;;0.00;0.00;;;;;;;13.42;100.00;100479.28;5068723;28;20029;-47
2023/08/30 07:21:55;;;;;;;0.00;0.00;;;;;;;13.34;100.00;100483.03;5073500;28;20156;-48
2023/08/30 07:24:22;;;;;;;0.00;0.00;;;;;;;13.44;100.00;100470.97;5070746;28;20035;-46
2023/08/30 07:26:48;;;;;;;0.00;0.00;;;;;;;13.46;100.00;100479.72;5071733;28;20036;-46
2023/08/30 07:29:13;;;;;;;0.00;0.00;;;;;;;13.51;100.00;100479.91;5063871;28;20077;-48
2023/08/30 07:31:41;;;;;;;0.00;0.00;;;;;;;13.55;100.00;100475.75;5068991;28;20052;-51
2023/08/30 07:34:07;;;;;;;0.00;0.00;;;;;;;13.64;100.00;100473.63;5071341;28;20062;-50
2023/08/30 07:36:33;;;;;;;0.00;0.00;;;;;;;13.58;100.00;100478.03;5067935;28;20045;-46
2023/08/30 07:38:58;;;;;;;0.00;0.00;;;;;;;13.61;100.00;100472.19;5071495;28;20032;-48
2023/08/30 07:41:23;;;;;;;0.00;0.00;;;;;;;13.55;100.00;100467.63;5074701;28;20126;-44
2023/08/30 07:43:49;;;;;;;0.00;0.00;;;;;;;13.49;100.00;100469.31;5058856;28;20458;-50
2023/08/30 07:46:14;;;;;;;0.00;0.00;;;;;;;13.50;100.00;100468.25;5070229;28;20094;-48
2023/08/30 07:48:39;;;;;;;0.00;0.00;;;;;;;13.56;100.00;100469.28;5070313;28;20028;-50
2023/08/30 07:51:05;;;;;;;0.00;0.00;;;;;;;13.65;100.00;100462.63;5075935;28;20043;-50
2023/08/30 07:53:30;;;;;;;0.00;0.00;;;;;;;13.70;100.00;100470.94;5067151;28;20119;-45
2023/08/30 07:55:56;;;;;;;0.00;0.00;;;;;;;13.75;100.00;100467.59;5057435;28;20052;-47
2023/08/30 07:58:21;;;;;;;0.00;0.00;;;;;;;13.68;100.00;100473.00;5075157;28;20025;-48
2023/08/30 08:00:50;;;;;;;0.00;0.00;;;;;;;13.68;100.00;100475.72;5083066;28;20506;-47
2023/08/30 08:03:16;;;;;;;0.00;0.00;;;;;;;13.79;100.00;100469.66;5074319;28;20044;-49
2023/08/30 08:05:41;;;;;;;0.00;0.00;;;;;;;13.86;100.00;100476.94;5055593;28;20025;-46
2023/08/30 08:08:06;;;;;;;0.00;0.00;;;;;;;13.85;100.00;100486.94;5070649;28;20041;-48
2023/08/30 08:10:34;;;;;;;0.00;0.00;;;;;;;13.88;100.00;100488.38;5074923;28;20032;-49
2023/08/30 08:13:00;;;;;;;0.00;0.00;;;;;;;13.95;100.00;100489.16;5076500;28;20021;-49
2023/08/30 08:15:25;;;;;;;0.00;0.00;;;;;;;14.07;100.00;100487.47;5071618;28;20115;-48
2023/08/30 08:17:50;;;;;;;0.00;0.00;;;;;;;14.19;100.00;100474.09;5077848;28;20039;-48
2023/08/30 08:20:16;;;;;;;0.00;0.00;;;;;;;14.46;100.00;100480.22;5072135;28;20518;-46
2023/08/30 08:22:41;;;;;;;0.00;0.00;;;;;;;14.84;100.00;100484.81;5068754;28;20419;-48
2023/08/30 08:25:09;;;;;;;0.00;0.00;;;;;;;15.79;100.00;100488.19;5070716;28;20036;-48
2023/08/30 08:27:35;;;;;;;0.00;0.00;;;;;;;17.11;100.00;100503.00;5062529;28;20029;-44
2023/08/30 08:30:01;;;;;;;0.00;0.00;;;;;;;17.57;100.00;100506.03;5054936;28;20134;-48
2023/08/30 08:32:26;;;;;;;0.00;0.00;;;;;;;17.57;100.00;100495.97;5076302;28;20489;-49
2023/08/30 08:34:52;;;;;;;0.00;0.00;;;;;;;17.58;100.00;100475.84;5069811;28;20379;-48
2023/08/30 08:37:17;;;;;;;0.00;0.00;;;;;;;17.66;100.00;100439.28;5064908;28;20029;-49
2023/08/30 08:39:44;;;;;;;0.00;0.00;;;;;;;18.38;100.00;100419.81;5070032;28;20040;-46
2023/08/30 08:42:10;;;;;;;0.00;0.00;;;;;;;19.25;100.00;100404.94;5073485;28;20416;-50
2023/08/30 08:44:36;;;;;;;0.00;0.00;;;;;;;19.18;100.00;100377.81;5070843;28;20051;-47
2023/08/30 08:47:02;;;;;;;0.00;0.00;;;;;;;18.88;100.00;100375.47;5075149;28;20382;-46
2023/08/30 08:49:29;;;;;;;0.00;0.00;;;;;;;18.52;100.00;100376.72;5055532;28;20500;-48
2023/08/30 08:51:55;;;;;;;0.00;0.00;;;;;;;18.33;100.00;100379.69;5071041;28;20021;-47
2023/08/30 08:54:20;;;;;;;0.00;0.00;;;;;;;17.88;100.00;100382.34;5070772;28;20050;-51
2023/08/30 08:56:46;;;;;;;0.00;0.00;;;;;;;17.54;100.00;100382.97;5070026;28;20451;-48
2023/08/30 08:59:11;;;;;;;0.00;0.00;;;;;;;17.44;100.00;100387.38;5070279;28;20032;-48
2023/08/30 09:01:39;;;;;;;0.00;0.00;;;;;;;18.10;100.00;100396.94;5070643;28;20115;-49
2023/08/30 09:04:09;;;;;;;0.00;0.00;;;;;;;19.25;100.00;100386.66;5071212;28;20116;-48
2023/08/30 09:06:35;;;;;;;0.00;0.00;;;;;;;20.29;100.00;100395.91;5070858;28;20401;-46
2023/08/30 09:09:03;;;;;;;0.00;0.00;;;;;;;20.75;100.00;100398.31;5052362;28;20036;-46
2023/08/30 09:11:29;;;;;;;0.00;0.00;;;;;;;21.44;100.00;100401.00;5071595;28;20032;-47
2023/08/30 09:13:54;;;;;;;0.00;0.00;;;;;;;21.81;100.00;100393.81;5071496;28;20115;-47
2023/08/30 09:16:20;;;;;;;0.00;0.00;;;;;;;21.24;100.00;100400.84;5071231;28;20032;-48
2023/08/30 09:19:00;;;;;;;0.00;0.00;;;;;;;20.90;100.00;100395.66;5071090;28;20035;-47
2023/08/30 09:21:26;;;;;;;0.00;0.00;;;;;;;21.15;100.00;100399.69;5071290;28;20055;-47
2023/08/30 09:24:02;;;;;;;0.00;0.00;;;;;;;21.29;100.00;100403.63;5071282;28;20451;-47
2023/08/30 09:26:28;;;;;;;0.00;0.00;;;;;;;20.99;100.00;100404.25;5071440;28;20029;-50
2023/08/30 09:28:55;;;;;;;0.00;0.00;;;;;;;21.21;100.00;100391.25;5070873;28;20641;-50
2023/08/30 09:31:20;;;;;;;0.00;0.00;;;;;;;21.08;100.00;100402.66;5071439;28;20055;-48
2023/08/30 09:33:48;;;;;;;0.00;0.00;;;;;;;21.22;100.00;100392.06;5070097;28;20434;-48
2023/08/30 09:36:14;;;;;;;0.00;0.00;;;;;;;21.32;100.00;100399.53;5070459;28;20066;-50
2023/08/30 09:38:39;;;;;;;0.00;0.00;;;;;;;21.07;100.00;100405.66;5065871;28;20049;-48
2023/08/30 09:41:05;;;;;;;0.00;0.00;;;;;;;20.59;100.00;100400.06;5069492;28;20024;-51
2023/08/30 09:43:32;;;;;;;0.00;0.00;;;;;;;20.16;100.00;100396.31;5070651;28;20028;-47
2023/08/30 09:45:58;;;;;;;0.00;0.00;;;;;;;19.70;100.00;100398.50;5072924;28;20413;-48
2023/08/30 09:48:28;;;;;;;0.00;0.00;;;;;;;19.18;100.00;100404.28;5074110;28;20279;-46
2023/08/30 09:50:56;;;;;;;0.00;0.00;;;;;;;18.69;100.00;100396.63;5073750;28;20036;-49
2023/08/30 09:53:25;;;;;;;0.00;0.00;;;;;;;18.86;100.00;100411.16;5074459;28;20386;-50
2023/08/30 09:55:52;;;;;;;0.00;0.00;;;;;;;19.33;100.00;100407.25;5074341;28;20063;-50
2023/08/30 09:58:17;;;;;;;0.00;0.00;;;;;;;19.62;100.00;100401.66;5056228;28;20052;-46
2023/08/30 10:00:43;;;;;;;0.00;0.00;;;;;;;20.03;100.00;100408.47;5073798;28;20339;-46
2023/08/30 10:03:08;;;;;;;0.00;0.00;;;;;;;19.82;100.00;100399.19;5074066;28;20028;-47
2023/08/30 10:05:35;;;;;;;0.00;0.00;;;;;;;19.72;100.00;100407.25;5072616;28;20036;-49
2023/08/30 10:08:00;;;;;;;0.00;0.00;;;;;;;19.32;100.00;100407.50;5066420;28;20424;-48
2023/08/30 10:10:26;;;;;;;0.00;0.00;;;;;;;18.99;100.00;100404.53;5055015;28;20112;-49
2023/08/30 10:12:53;;;;;;;0.00;0.00;;;;;;;18.71;100.00;100408.13;5073563;28;20039;-46
2023/08/30 10:15:20;;;;;;;0.00;0.00;;;;;;;18.48;100.00;100406.34;5056010;28;20029;-46
2023/08/30 10:17:46;;;;;;;0.00;0.00;;;;;;;18.39;100.00;100413.28;5055931;28;20028;-48
2023/08/30 10:20:14;;;;;;;0.00;0.00;;;;;;;18.84;100.00;100407.03;5074246;28;20629;-46
2023/08/30 10:22:40;;;;;;;0.00;0.00;;;;;;;18.94;100.00;100406.38;5074108;28;20039;-46
2023/08/30 10:25:11;;;;;;;0.00;0.00;;;;;;;19.05;100.00;100408.19;5074508;28;20021;-49
2023/08/30 10:27:38;;;;;;;0.00;0.00;;;;;;;19.03;100.00;100410.31;5055997;28;20051;-52
2023/08/30 10:30:05;;;;;;;0.00;0.00;;;;;;;18.97;100.00;100423.06;5055552;28;20383;-49
2023/08/30 10:32:31;;;;;;;0.00;0.00;;;;;;;18.85;100.00;100423.16;5053551;28;20098;-50
2023/08/30 10:35:00;;;;;;;0.00;0.00;;;;;;;18.79;100.00;100415.94;5054270;28;20025;-48
2023/08/30 10:37:27;;;;;;;0.00;0.00;;;;;;;19.01;100.00;100426.94;5071637;28;20111;-49
2023/08/30 10:39:53;;;;;;;0.00;0.00;;;;;;;19.21;100.00;100428.34;5072317;28;20028;-48
2023/08/30 10:42:22;;;;;;;0.00;0.00;;;;;;;19.44;100.00;100422.69;5054564;28;20503;-47
2023/08/30 10:44:50;;;;;;;0.00;0.00;;;;;;;19.67;100.00;100423.59;5073184;28;20029;-48
2023/08/30 10:47:19;;;;;;;0.00;0.00;;;;;;;19.67;100.00;100435.31;5073201;28;20060;-47
2023/08/30 10:49:46;;;;;;;0.00;0.00;;;;;;;19.93;100.00;100441.94;5072528;28;20459;-50
2023/08/30 10:52:12;;;;;;;0.00;0.00;;;;;;;20.14;100.00;100442.19;5073764;28;20147;-49
2023/08/30 10:54:40;;;;;;;0.00;0.00;;;;;;;20.10;100.00;100441.06;5072657;28;20504;-48
2023/08/30 10:57:12;;;;;;;0.00;0.00;;;;;;;20.07;100.00;100436.09;5069993;28;20093;-48
2023/08/30 10:59:38;;;;;;;0.00;0.00;;;;;;;19.78;100.00;100447.22;5072653;28;20059;-47
2023/08/30 11:02:03;;;;;;;0.00;0.00;;;;;;;19.30;100.00;100438.59;5063388;28;20048;-47
2023/08/30 11:04:29;;;;;;;0.00;0.00;;;;;;;19.22;100.00;100440.88;5070565;28;20047;-48
2023/08/30 11:06:55;;;;;;;0.00;0.00;;;;;;;19.33;100.00;100445.44;5071406;28;20035;-45
2023/08/30 11:09:23;;;;;;;0.00;0.00;;;;;;;19.47;100.00;100454.94;5071957;28;20033;-48
2023/08/30 11:11:49;;;;;;;0.00;0.00;;;;;;;19.64;100.00;100451.34;5071372;28;20130;-47